Somis, California
Current Conditions -  °F | °C
As of 7:55 PM on Sunday 25 Jan 2015 (Local Time) from KCMA Reporting Station
Clear Clear  
Wind Chill: 58°   Ceiling: Unl
Heat Index: 58°   Visibility: 10mi
Dew Point: 45°   Wind: 7mph
Humidity: 62%   Direction: 50°NE
Pressure: 30.02"   Gusts: NA
Location:  34.26°N, 119°W
Report Text: KCMA 260355Z 05006KT 10SM CLR 14/07 A3002 RMK AO2 SLP174 T01440072
Loading
Personal Weather Stations






























Interactive Weather Map New forecast layout! Learn more

10-Day Weather Forecast

Advertisements
Track Severe Weather on mobile